Westerly, Rhode Island
Current Conditions -  °F | °C
As of 6:53 AM on Thursday 18 Dec 2014 (Local Time) from KWST Reporting Station
Overcast Overcast  
Wind Chill: 33°   Ceiling: 7000
Heat Index: 38°   Visibility: 10mi
Dew Point: 29°   Wind: 6mph
Humidity: 70%   Direction: NA
Pressure: 29.83"   Gusts: 18mph
Location:  41.38°N, 71.83°W
Report Text: KWST 181153Z AUTO VRB05G16KT 10SM SCT055 BKN070 OVC110 03/M02 A2983 RMK AO2 SLP101 60000 T00331017 10039 20028 53011
Loading
Personal Weather Stations






























Interactive Weather Map New forecast layout! Learn more

10-Day Weather Forecast

Advertisements
Track Severe Weather on mobile